Time;durP1;ratioP1;P1;durP2;ratioP2;P2;SDS_P1;SDS_P2;PMS_P1;PMS_P2;Temp;Humidity;BMP_temperature;BMP_pressure;BME280_temperature;BME280_humidity;BME280_pressure;Samples;Min_cycle;Max_cycle;Signal;HPM_P1;HPM_P2
2021/07/25 00:00:54;;;;;;;16.87;11.80;;;;;;;18.69;96.38;100087.52;125712;1096;64143;-85
2021/07/25 00:03:24;;;;;;;15.67;9.53;;;;;;;18.71;96.61;100083.52;125898;1096;64746;-85
2021/07/25 00:06:09;;;;;;;17.83;10.70;;;;;;;18.72;96.31;100082.48;125816;1096;64291;-85
2021/07/25 00:08:56;;;;;;;;;;;;;;;18.72;95.73;100082.48;125790;1096;64689;-84
2021/07/25 00:11:42;;;;;;;15.47;10.47;;;;;;;18.66;95.08;100077.27;125755;1096;64166;-85
2021/07/25 00:14:42;;;;;;;19.10;11.40;;;;;;;18.66;95.49;100070.02;125373;1095;64298;-86
2021/07/25 00:17:14;;;;;;;20.70;11.13;;;;;;;18.68;95.92;100073.28;125767;1096;64371;-84
2021/07/25 00:19:51;;;;;;;14.77;10.33;;;;;;;18.70;96.09;100065.79;125307;1095;64288;-84
2021/07/25 00:22:23;;;;;;;19.27;11.87;;;;;;;18.71;95.79;100064.72;125255;1096;64299;-83
2021/07/25 00:25:11;;;;;;;17.33;12.17;;;;;;;18.73;95.80;100062.60;125223;1096;64375;-85
2021/07/25 00:27:42;;;;;;;16.30;10.90;;;;;;;18.75;96.49;100063.17;125654;1096;64229;-84
2021/07/25 00:30:17;;;;;;;18.57;13.43;;;;;;;18.77;96.54;100060.25;125692;1095;62724;-84
2021/07/25 00:32:57;;;;;;;;;;;;;;;18.79;96.42;100057.36;125477;1096;64285;-85
2021/07/25 00:35:25;;;;;;;21.20;12.60;;;;;;;18.79;96.48;100065.42;125233;1096;64307;-84
2021/07/25 00:38:02;;;;;;;15.20;10.43;;;;;;;18.79;96.87;100065.42;125727;1096;64278;-86
2021/07/25 00:41:15;;;;;;;;;;;;;;;;;;;;;
2021/07/25 00:43:47;;;;;;;16.60;11.17;;;;;;;18.81;96.34;100065.98;126433;1096;64275;-85
2021/07/25 00:46:18;;;;;;;14.37;8.77;;;;;;;18.80;96.32;100067.03;125818;1095;64285;-85
2021/07/25 00:48:49;;;;;;;18.70;12.07;;;;;;;18.78;96.70;100061.89;125037;1096;64295;-84
2021/07/25 00:51:30;;;;;;;;;;;;;;;;;;;;;
2021/07/25 00:54:24;;;;;;;15.30;10.07;;;;;;;18.73;96.66;100054.55;125488;1096;64210;-84
2021/07/25 00:56:52;;;;;;;19.08;12.13;;;;;;;18.71;96.61;100056.66;125338;1095;64131;-83
2021/07/25 00:59:22;;;;;;;22.33;12.87;;;;;;;18.71;96.39;100048.59;125068;1096;64391;-86
2021/07/25 01:02:01;;;;;;;22.70;14.40;;;;;;;18.72;96.41;100058.30;125118;1096;64461;-84
2021/07/25 01:05:05;;;;;;;21.60;14.23;;;;;;;18.72;96.64;100058.30;125264;1096;64294;-86
2021/07/25 01:08:24;;;;;;;18.70;12.33;;;;;;;18.74;96.07;100060.72;125734;1096;64210;-85
2021/07/25 01:11:04;;;;;;;19.60;12.00;;;;;;;18.75;96.06;100056.99;125334;1096;64425;-83
2021/07/25 01:13:40;;;;;;;20.43;13.50;;;;;;;18.74;95.47;100061.56;125163;1096;64278;-85
2021/07/25 01:16:32;;;;;;;23.67;12.93;;;;;;;18.77;95.24;100064.82;125735;1096;64588;-85
2021/07/25 01:19:02;;;;;;;18.23;11.17;;;;;;;18.77;94.73;100070.19;125405;1095;64364;-85
2021/07/25 01:21:58;;;;;;;23.30;14.10;;;;;;;18.75;94.92;100073.92;125233;1096;64522;-85
2021/07/25 01:25:09;;;;;;;18.10;11.57;;;;;;;18.77;94.48;100067.50;125566;1095;64428;-87
2021/07/25 01:28:02;;;;;;;20.90;13.83;;;;;;;18.74;94.40;100071.47;125696;1096;64315;-85
2021/07/25 01:30:32;;;;;;;22.10;14.40;;;;;;;18.73;93.98;100054.55;125322;1096;64840;-85
2021/07/25 01:33:20;;;;;;;;;;;;;;;;;;;;;
2021/07/25 01:36:02;;;;;;;;;;;;;;;;;;;;;
2021/07/25 01:38:39;;;;;;;20.63;13.73;;;;;;;18.73;93.26;100067.17;125688;1096;64843;-85
2021/07/25 01:41:08;;;;;;;21.33;13.00;;;;;;;18.71;93.09;100062.03;125668;1096;64295;-86
2021/07/25 01:43:45;;;;;;;22.63;15.67;;;;;;;18.70;92.86;100070.33;125175;1095;65479;-84
2021/07/25 01:46:18;;;;;;;22.10;15.27;;;;;;;18.66;92.91;100070.02;125781;1096;64210;-85
2021/07/25 01:48:51;;;;;;;26.13;15.37;;;;;;;18.63;92.31;100069.69;125712;1096;64402;-85
2021/07/25 01:51:28;;;;;;;20.83;14.17;;;;;;;18.60;92.72;100076.36;125440;1095;64339;-86
2021/07/25 01:53:57;;;;;;;18.97;12.73;;;;;;;18.55;92.59;100076.27;125759;1095;64284;-84
2021/07/25 01:56:28;;;;;;;24.23;15.07;;;;;;;18.49;92.83;100071.89;125487;1096;64339;-84
2021/07/25 01:59:09;;;;;;;;;;;;;;;;;;;;;
2021/07/25 02:01:41;;;;;;;21.07;13.43;;;;;;;18.37;93.09;100077.30;125253;1096;64293;-85
2021/07/25 02:04:15;;;;;;;26.87;17.50;;;;;;;18.33;93.43;100081.53;125575;1096;64202;-84
2021/07/25 02:06:42;;;;;;;22.67;15.23;;;;;;;18.31;93.71;100089.81;125184;1095;64266;-86
2021/07/25 02:09:24;;;;;;;26.43;17.17;;;;;;;18.27;93.35;100088.66;125559;1096;64362;-86
2021/07/25 02:12:05;;;;;;;;;;;;;;;;;;;;;
2021/07/25 02:14:44;;;;;;;26.33;17.13;;;;;;;18.22;93.29;100107.38;125794;1096;64275;-84
2021/07/25 02:17:14;;;;;;;27.10;17.00;;;;;;;18.18;93.23;100100.85;125512;1095;64349;-84
2021/07/25 02:19:41;;;;;;;26.50;15.97;;;;;;;18.18;93.19;100100.05;125390;1096;64307;-86
2021/07/25 02:22:11;;;;;;;22.43;14.57;;;;;;;18.14;92.95;100107.75;125739;1096;64276;-84
2021/07/25 02:24:41;;;;;;;30.13;18.53;;;;;;;18.11;93.23;100116.30;125172;1096;64232;-83
2021/07/25 02:27:14;;;;;;;29.05;17.85;;;;;;;18.08;93.29;100117.56;125250;1095;64199;-84
2021/07/25 02:30:05;;;;;;;25.60;18.15;;;;;;;18.03;93.85;100114.80;125325;1095;64237;-84
2021/07/25 02:32:41;;;;;;;30.67;18.43;;;;;;;17.98;93.86;100127.28;125315;1096;64307;-84
2021/07/25 02:35:14;;;;;;;32.67;18.10;;;;;;;17.95;94.02;100133.14;125290;1096;64221;-88
2021/07/25 02:37:43;;;;;;;28.23;17.07;;;;;;;17.90;94.25;100129.30;126107;1096;64304;-84
2021/07/25 02:40:11;;;;;;;31.70;18.37;;;;;;;17.87;94.41;100148.57;126745;1096;64241;-86
2021/07/25 02:42:43;;;;;;;27.83;17.17;;;;;;;17.85;94.30;100150.67;125603;1095;64403;-83
2021/07/25 02:45:25;;;;;;;25.40;14.50;;;;;;;17.84;94.43;100143.66;125325;1095;64202;-84
2021/07/25 02:48:05;;;;;;;;;;;;;;;;;;;;;
2021/07/25 02:50:35;;;;;;;29.80;17.55;;;;;;;17.80;95.21;100153.20;125431;1096;64205;-85
2021/07/25 02:53:26;;;;;;;29.07;17.93;;;;;;;17.78;95.10;100147.25;125191;1096;64348;-84
2021/07/25 02:55:54;;;;;;;34.17;19.00;;;;;;;17.76;95.62;100152.03;125145;1096;64259;-84
2021/07/25 02:58:29;;;;;;;28.67;18.70;;;;;;;17.75;95.44;100161.15;125176;1096;64270;-83
2021/07/25 03:00:57;;;;;;;27.33;16.60;;;;;;;17.74;94.71;100154.14;125191;1095;63080;-82
2021/07/25 03:03:25;;;;;;;26.60;16.53;;;;;;;17.72;94.70;100161.61;125214;1096;64984;-84
2021/07/25 03:06:02;;;;;;;31.97;17.87;;;;;;;17.69;94.63;100152.16;125175;1096;64374;-83
2021/07/25 03:08:40;;;;;;;31.90;18.60;;;;;;;17.66;94.57;100147.28;125442;1096;64373;-86
2021/07/25 03:11:34;;;;;;;34.57;19.03;;;;;;;17.61;94.45;100140.98;125696;1095;64256;-86
2021/07/25 03:14:14;;;;;;;28.67;17.63;;;;;;;17.58;94.75;100141.47;125679;1096;64205;-85
2021/07/25 03:17:07;;;;;;;32.17;18.33;;;;;;;17.56;94.98;100139.02;125681;1096;64208;-85
2021/07/25 03:19:47;;;;;;;;;;;;;;;;;;;;;
2021/07/25 03:22:24;;;;;;;27.20;18.17;;;;;;;17.48;94.42;100150.09;125700;1095;64255;-86
2021/07/25 03:25:17;;;;;;;28.63;18.07;;;;;;;17.43;94.43;100155.34;127514;1096;64180;-86
2021/07/25 03:27:46;;;;;;;26.17;16.30;;;;;;;17.34;94.49;100162.92;127679;1094;64265;-83
2021/07/25 03:30:24;;;;;;;28.35;17.15;;;;;;;17.29;94.62;100155.55;125862;1096;64169;-84
2021/07/25 03:32:54;;;;;;;27.17;16.73;;;;;;;17.26;94.80;100160.58;125693;1096;64321;-84
2021/07/25 03:35:35;;;;;;;;;;;;;;;;;;;;;
2021/07/25 03:38:36;;;;;;;31.80;17.15;;;;;;;17.28;95.75;100155.81;125655;1096;64165;-85
2021/07/25 03:41:05;;;;;;;29.23;18.73;;;;;;;17.22;95.72;100140.66;125712;1095;64218;-85
2021/07/25 03:44:34;;;;;;;29.30;17.00;;;;;;;17.31;95.41;100155.33;125571;1096;64291;-85
2021/07/25 03:47:59;;;;;;;;;;;;;;;;;;;;;
2021/07/25 03:51:16;;;;;;;;;;;;;;;;;;;;;
2021/07/25 03:54:44;;;;;;;;;;;;;;;;;;;;;
2021/07/25 03:57:59;;;;;;;24.15;16.50;;;;;;;17.15;94.58;100169.41;125093;1096;64291;-85
2021/07/25 04:00:46;;;;;;;26.37;15.40;;;;;;;17.08;94.57;100172.20;125057;1096;64301;-84
2021/07/25 04:04:15;;;;;;;25.93;16.80;;;;;;;17.04;94.77;100177.23;125036;1096;64298;-84
2021/07/25 04:07:35;;;;;;;;;;;;;;;;;;;;;
2021/07/25 04:10:35;;;;;;;24.13;15.83;;;;;;;16.94;94.70;100171.61;124967;1096;64227;-86
2021/07/25 04:13:49;;;;;;;;;;;;;;;;;;;;;
2021/07/25 04:16:32;;;;;;;28.57;16.93;;;;;;;16.90;95.33;100170.43;124803;1096;64277;-88
2021/07/25 04:19:15;;;;;;;24.70;16.33;;;;;;;16.93;96.03;100164.59;125021;1095;64253;-87
2021/07/25 04:23:05;;;;;;;;;;;;;;;;;;;;;
2021/07/25 04:25:46;;;;;;;;;;;;;;;;;;;;;
2021/07/25 04:28:17;;;;;;;29.60;18.83;;;;;;;17.06;96.44;100167.06;125006;1096;64287;-85
2021/07/25 04:31:36;;;;;;;28.50;15.67;;;;;;;17.10;96.17;100165.55;124915;1096;64201;-85
2021/07/25 04:34:25;;;;;;;24.77;16.90;;;;;;;17.15;96.03;100170.25;125014;1095;64256;-83
2021/07/25 04:37:48;;;;;;;27.67;17.00;;;;;;;17.20;95.48;100180.27;125006;1096;64212;-85
2021/07/25 04:41:12;;;;;;;31.60;16.53;;;;;;;17.20;95.19;100182.95;125114;1096;64211;-86
2021/07/25 04:44:14;;;;;;;25.30;14.70;;;;;;;17.23;95.03;100185.97;125102;1095;64390;-84
2021/07/25 04:47:21;;;;;;;;;;;;;;;;;;;;;
2021/07/25 04:50:57;;;;;;;25.05;14.45;;;;;;;17.11;93.51;100180.61;124881;1096;64317;-84
2021/07/25 04:54:24;;;;;;;33.55;14.65;;;;;;;17.11;93.96;100177.92;125024;1095;64275;-84
2021/07/25 04:57:49;;;;;;;20.00;12.77;;;;;;;17.15;94.39;100186.33;125079;1095;64286;-83
2021/07/25 05:00:32;;;;;;;22.73;13.50;;;;;;;17.19;95.36;100192.86;125048;1096;64320;-84
2021/07/25 05:03:11;;;;;;;23.00;14.60;;;;;;;17.24;95.47;100197.53;125754;1095;64255;-84
2021/07/25 05:06:15;;;;;;;28.60;15.75;;;;;;;17.30;95.42;100208.14;125088;1095;64282;-86
2021/07/25 05:09:43;;;;;;;23.27;14.07;;;;;;;17.38;95.55;100209.64;125345;1096;64195;-85
2021/07/25 05:12:46;;;;;;;;;;;;;;;;;;;;;
2021/07/25 05:16:13;;;;;;;;;;;;;;;;;;;;;
2021/07/25 05:19:28;;;;;;;25.33;15.57;;;;;;;17.57;95.26;100222.95;125488;1095;64224;-84
2021/07/25 05:22:35;;;;;;;28.10;15.10;;;;;;;17.66;95.05;100221.55;125284;1096;64448;-85
2021/07/25 05:25:57;;;;;;;26.73;15.23;;;;;;;17.80;95.27;100212.22;125351;1096;64527;-83
2021/07/25 05:29:08;;;;;;;27.00;15.03;;;;;;;17.95;95.29;100213.65;125486;1096;64233;-84
2021/07/25 05:31:47;;;;;;;33.20;14.93;;;;;;;18.13;95.37;100216.20;125172;1095;64211;-84
2021/07/25 05:34:45;;;;;;;;;;;;;;;;;;;;;
2021/07/25 05:37:52;;;;;;;22.17;12.23;;;;;;;18.40;94.63;100215.64;125008;1096;64323;-84
2021/07/25 05:41:20;;;;;;;20.30;12.27;;;;;;;18.53;94.64;100215.36;124999;1096;64393;-85
2021/07/25 05:44:35;;;;;;;;;;;;;;;;;;;;;
2021/07/25 05:47:47;;;;;;;16.23;8.87;;;;;;;18.77;94.33;100220.66;124790;1096;64391;-83
2021/07/25 05:50:59;;;;;;;9.03;6.10;;;;;;;18.87;93.56;100234.30;125210;1096;64282;-82
2021/07/25 05:53:50;;;;;;;;;;;;;;;;;;;;;
2021/07/25 05:57:02;;;;;;;10.67;7.37;;;;;;;18.94;93.35;100233.09;125376;1096;64330;-83
2021/07/25 06:00:01;;;;;;;;;;;;;;;;;;;;;
2021/07/25 06:03:30;;;;;;;15.30;6.70;;;;;;;19.12;92.86;100229.36;124991;1095;64259;-87
2021/07/25 06:06:42;;;;;;;;;;;;;;;;;;;;;
2021/07/25 06:09:15;;;;;;;13.27;7.73;;;;;;;19.34;91.02;100220.60;125030;1095;64175;-85
2021/07/25 06:12:24;;;;;;;12.50;8.55;;;;;;;19.40;90.66;100224.17;124990;1096;64334;-84
2021/07/25 06:15:33;;;;;;;15.70;7.13;;;;;;;19.52;89.62;100217.64;125328;1096;64272;-85
2021/07/25 06:18:39;;;;;;;;;;;;;;;;;;;;;
2021/07/25 06:21:15;;;;;;;16.53;8.77;;;;;;;19.84;89.25;100225.13;125819;1095;64232;-84
2021/07/25 06:23:59;;;;;;;;;;;;;;;;;;;;;
2021/07/25 06:26:27;;;;;;;15.03;9.58;;;;;;;20.03;86.83;100222.97;126281;1096;63739;-85
2021/07/25 06:28:54;;;;;;;11.93;7.13;;;;;;;20.09;84.97;100221.16;125125;1095;64386;-83
2021/07/25 06:31:24;;;;;;;10.37;6.63;;;;;;;20.09;84.97;100221.97;125372;1095;64297;-84
2021/07/25 06:34:41;;;;;;;13.33;7.90;;;;;;;20.11;84.34;100229.81;125353;1096;64221;-84
2021/07/25 06:37:26;;;;;;;18.97;8.60;;;;;;;20.05;84.37;100222.73;125328;1096;64252;-86
2021/07/25 06:40:43;;;;;;;10.57;5.87;;;;;;;20.14;84.97;100224.72;125416;1096;64375;-85
2021/07/25 06:43:18;;;;;;;13.07;7.60;;;;;;;20.23;83.95;100232.37;125292;1096;64294;-85
2021/07/25 06:46:07;;;;;;;13.95;7.45;;;;;;;20.33;83.61;100237.89;125141;1096;64208;-85
2021/07/25 06:48:46;;;;;;;17.67;8.73;;;;;;;20.43;82.95;100234.52;125149;1096;64218;-88
2021/07/25 06:51:29;;;;;;;14.20;8.30;;;;;;;20.55;81.81;100240.59;125332;1096;64303;-89
2021/07/25 06:54:01;;;;;;;13.33;8.03;;;;;;;20.71;81.89;100239.70;125250;1096;64342;-85
2021/07/25 06:56:40;;;;;;;12.87;8.10;;;;;;;20.88;81.61;100239.61;125136;1095;64277;-87
2021/07/25 06:59:14;;;;;;;12.83;7.40;;;;;;;21.04;78.45;100242.45;125115;1096;64407;-85
2021/07/25 07:02:03;;;;;;;;;;;;;;;;;;;;;
2021/07/25 07:04:34;;;;;;;10.83;7.30;;;;;;;21.27;77.43;100238.61;125141;1095;65808;-84
2021/07/25 07:07:12;;;;;;;;;;;;;;;;;;;;;
2021/07/25 07:10:22;;;;;;;12.05;7.20;;;;;;;21.47;76.82;100229.91;125124;1095;64294;-84
2021/07/25 07:13:19;;;;;;;14.80;7.63;;;;;;;21.66;77.10;100235.71;126004;1095;64146;-84
2021/07/25 07:16:09;;;;;;;10.23;7.40;;;;;;;21.76;75.79;100239.29;125120;1096;64339;-84
2021/07/25 07:18:50;;;;;;;14.53;8.33;;;;;;;21.89;74.58;100247.98;124772;1096;64349;-85
2021/07/25 07:21:17;;;;;;;10.47;7.80;;;;;;;22.03;74.28;100248.34;125140;1095;64370;-85
2021/07/25 07:24:00;;;;;;;12.15;7.05;;;;;;;22.08;72.93;100245.66;125699;1096;64170;-84
2021/07/25 07:26:28;;;;;;;9.73;6.93;;;;;;;22.21;73.37;100250.61;125581;1095;64282;-85
2021/07/25 07:28:58;;;;;;;12.87;8.07;;;;;;;22.31;73.19;100239.84;125457;1095;64246;-85
2021/07/25 07:31:34;;;;;;;14.87;8.50;;;;;;;22.41;70.77;100239.09;125504;1096;64285;-85
2021/07/25 07:34:02;;;;;;;12.70;8.95;;;;;;;22.46;69.15;100246.39;125599;1096;65725;-85
2021/07/25 07:36:32;;;;;;;14.37;8.33;;;;;;;22.56;70.85;100241.03;125467;1096;64300;-84
2021/07/25 07:38:59;;;;;;;11.83;7.63;;;;;;;22.73;70.91;100240.81;125518;1095;64304;-84
2021/07/25 07:41:26;;;;;;;13.10;8.50;;;;;;;22.77;67.66;100241.90;125380;1095;64255;-83
2021/07/25 07:44:06;;;;;;;8.80;6.17;;;;;;;22.78;67.64;100248.92;125223;1095;64763;-83
2021/07/25 07:46:37;;;;;;;9.00;6.77;;;;;;;22.80;67.38;100247.59;125468;1096;64331;-81
2021/07/25 07:49:04;;;;;;;12.20;8.50;;;;;;;22.83;66.82;100245.44;125388;1096;64223;-83
2021/07/25 07:51:34;;;;;;;13.67;9.07;;;;;;;22.87;67.25;100250.04;125075;1096;64252;-81
2021/07/25 07:54:05;;;;;;;12.57;8.63;;;;;;;22.88;66.62;100250.84;125292;1095;64300;-83
2021/07/25 07:56:35;;;;;;;12.83;8.37;;;;;;;22.87;66.35;100241.13;125579;1096;64294;-81
2021/07/25 07:59:12;;;;;;;11.50;7.97;;;;;;;22.91;67.89;100242.18;124970;1096;64877;-80
2021/07/25 08:01:44;;;;;;;11.20;8.60;;;;;;;22.96;67.63;100247.62;125247;1095;64783;-81
2021/07/25 08:04:14;;;;;;;12.43;9.10;;;;;;;23.01;66.86;100247.64;125520;1096;64205;-82
2021/07/25 08:06:41;;;;;;;11.63;8.23;;;;;;;23.00;65.42;100248.70;125096;1095;64181;-80
2021/07/25 08:09:13;;;;;;;16.03;10.20;;;;;;;23.02;66.56;100248.48;125120;1095;64201;-81
2021/07/25 08:11:43;;;;;;;15.33;9.53;;;;;;;23.05;65.95;100259.55;125148;1095;64365;-80
2021/07/25 08:14:11;;;;;;;9.75;6.10;;;;;;;23.13;65.89;100244.69;124796;1096;64406;-79
2021/07/25 08:16:40;;;;;;;12.63;8.23;;;;;;;23.21;65.18;100249.57;125185;1096;64255;-80
2021/07/25 08:19:16;;;;;;;15.03;8.10;;;;;;;23.31;65.89;100240.63;125081;1096;64201;-79
2021/07/25 08:21:51;;;;;;;10.63;7.60;;;;;;;23.42;66.25;100244.98;125334;1095;64340;-81
2021/07/25 08:24:18;;;;;;;13.00;9.20;;;;;;;23.50;65.60;100246.30;125525;1095;64291;-83
2021/07/25 08:26:46;;;;;;;10.10;6.75;;;;;;;23.57;65.89;100234.13;125410;1096;64404;-81
2021/07/25 08:29:25;;;;;;;;;;;;;;;;;;;;;
2021/07/25 08:32:10;;;;;;;10.83;7.60;;;;;;;23.84;64.57;100238.42;125343;1095;64261;-82
2021/07/25 08:34:38;;;;;;;10.03;7.40;;;;;;;23.95;64.41;100231.08;126359;1095;64205;-81
2021/07/25 08:37:06;;;;;;;11.13;8.50;;;;;;;24.05;62.67;100239.19;125247;1095;64297;-82
2021/07/25 08:39:33;;;;;;;11.70;8.80;;;;;;;24.17;63.78;100236.17;125215;1096;64278;-82
2021/07/25 08:42:17;;;;;;;8.00;6.53;;;;;;;24.37;63.43;100224.42;125070;1094;64297;-80
2021/07/25 08:44:50;;;;;;;10.60;6.70;;;;;;;24.61;63.29;100230.85;125329;1095;64253;-81
2021/07/25 08:47:54;;;;;;;7.87;6.30;;;;;;;24.81;63.73;100235.33;124980;1096;64297;-83
2021/07/25 08:50:27;;;;;;;10.83;7.47;;;;;;;24.98;59.98;100239.56;124792;1096;64326;-82
2021/07/25 08:52:55;;;;;;;10.77;7.17;;;;;;;25.04;58.38;100238.44;125051;1096;64268;-81
2021/07/25 08:55:23;;;;;;;9.27;7.07;;;;;;;25.06;59.93;100236.26;124914;1096;64250;-81
2021/07/25 08:57:51;;;;;;;13.13;7.87;;;;;;;25.12;59.45;100234.30;125289;1095;64220;-82
2021/07/25 09:00:21;;;;;;;11.30;8.20;;;;;;;25.14;58.56;100229.39;124937;1095;64286;-82
2021/07/25 09:03:02;;;;;;;;;;;;;;;;;;;;;
2021/07/25 09:05:30;;;;;;;7.67;6.10;;;;;;;25.09;56.04;100237.59;125006;1096;64282;-81
2021/07/25 09:08:07;;;;;;;10.87;7.40;;;;;;;25.07;56.37;100235.15;125106;1095;64323;-80
2021/07/25 09:10:35;;;;;;;10.80;7.10;;;;;;;25.03;56.97;100226.78;125322;1096;64255;-81
2021/07/25 09:13:03;;;;;;;9.87;6.30;;;;;;;25.09;56.32;100224.02;125121;1096;64320;-81
2021/07/25 09:15:34;;;;;;;10.10;6.87;;;;;;;25.17;55.30;100232.36;124904;1096;64269;-82
2021/07/25 09:18:14;;;;;;;;;;;;;;;;;;;;;
2021/07/25 09:20:43;;;;;;;9.27;6.83;;;;;;;25.26;55.74;100246.16;125771;1096;64754;-81
2021/07/25 09:23:19;;;;;;;8.67;6.40;;;;;;;25.36;55.99;100234.42;125145;1096;64310;-81
2021/07/25 09:25:55;;;;;;;7.07;5.40;;;;;;;25.56;56.06;100236.13;124960;1095;64297;-82
2021/07/25 09:28:28;;;;;;;7.20;5.43;;;;;;;25.76;54.74;100237.84;125100;1096;64392;-81
2021/07/25 09:30:56;;;;;;;8.75;5.50;;;;;;;26.01;54.89;100240.32;125188;1095;64253;-81
2021/07/25 09:33:36;;;;;;;8.60;5.17;;;;;;;26.16;51.12;100241.22;125020;1096;64355;-82
2021/07/25 09:36:13;;;;;;;6.47;4.37;;;;;;;26.32;51.21;100239.94;124986;1095;64209;-81
2021/07/25 09:38:42;;;;;;;7.07;5.30;;;;;;;26.34;51.45;100248.61;125477;1095;64281;-81
2021/07/25 09:41:21;;;;;;;8.53;6.07;;;;;;;26.46;51.46;100250.92;125451;1095;64201;-83
2021/07/25 09:44:08;;;;;;;7.63;5.50;;;;;;;26.62;48.99;100251.55;125476;1095;64305;-79
2021/07/25 09:46:48;;;;;;;6.27;5.37;;;;;;;26.62;48.31;100255.06;125062;1096;64301;-83
2021/07/25 09:49:41;;;;;;;8.97;5.97;;;;;;;26.48;48.81;100248.73;125038;1096;64233;-82
2021/07/25 09:52:16;;;;;;;7.37;5.03;;;;;;;26.17;47.74;100238.22;124857;1095;64294;-82
2021/07/25 09:54:53;;;;;;;8.03;5.40;;;;;;;25.90;48.91;100246.95;125236;1096;64287;-81
2021/07/25 09:57:20;;;;;;;7.57;5.53;;;;;;;25.70;50.34;100244.43;125255;1096;64397;-82
2021/07/25 09:59:48;;;;;;;8.03;5.50;;;;;;;25.59;51.05;100244.52;124867;1095;64342;-81
2021/07/25 10:02:35;;;;;;;7.80;5.05;;;;;;;25.54;51.38;100247.27;124912;1096;64278;-82
2021/07/25 10:05:09;;;;;;;8.93;6.33;;;;;;;25.41;50.66;100247.94;125034;1096;64294;-81
2021/07/25 10:07:37;;;;;;;6.67;5.37;;;;;;;25.45;52.08;100240.05;125191;1095;64314;-82
2021/07/25 10:10:24;;;;;;;8.00;6.03;;;;;;;25.51;52.55;100231.56;125352;1095;64278;-81
2021/07/25 10:12:51;;;;;;;6.07;4.90;;;;;;;25.58;51.95;100232.02;125283;1096;64197;-81
2021/07/25 10:15:20;;;;;;;6.65;5.65;;;;;;;25.60;52.09;100235.27;125266;1095;64238;-81
2021/07/25 10:17:49;;;;;;;11.63;5.93;;;;;;;25.70;52.76;100228.93;125606;1096;64140;-84
2021/07/25 10:20:17;;;;;;;6.87;5.70;;;;;;;25.80;52.05;100228.03;124876;1096;64394;-80
2021/07/25 10:22:50;;;;;;;7.90;6.15;;;;;;;25.89;50.84;100226.31;124918;1095;64335;-83
2021/07/25 10:25:36;;;;;;;;;;;;;;;;;;;;;
2021/07/25 10:28:13;;;;;;;6.30;5.30;;;;;;;26.10;51.02;100236.97;124977;1096;64179;-79
2021/07/25 10:30:41;;;;;;;8.33;5.77;;;;;;;26.17;51.21;100242.85;125181;1096;63538;-80
2021/07/25 10:33:15;;;;;;;7.63;6.33;;;;;;;26.21;50.58;100254.77;125059;1095;64310;-80
2021/07/25 10:36:03;;;;;;;9.70;5.97;;;;;;;26.32;51.31;100255.45;125294;1095;64292;-82
2021/07/25 10:38:30;;;;;;;7.15;5.35;;;;;;;26.49;50.60;100249.52;125250;1096;64301;-82
2021/07/25 10:40:59;;;;;;;7.73;5.57;;;;;;;26.54;49.38;100255.69;125091;1096;64362;-82
2021/07/25 10:43:27;;;;;;;6.70;5.60;;;;;;;26.71;49.17;100259.86;125217;1095;64220;-84
2021/07/25 10:46:13;;;;;;;6.50;4.70;;;;;;;26.77;49.17;100254.05;125350;1096;64336;-81
2021/07/25 10:49:09;;;;;;;9.23;6.00;;;;;;;26.94;48.73;100252.73;126009;1095;64080;-81
2021/07/25 10:51:55;;;;;;;7.70;5.83;;;;;;;27.14;48.96;100255.14;125071;1096;64400;-82
2021/07/25 10:54:22;;;;;;;5.80;4.63;;;;;;;27.20;48.31;100243.06;125330;1096;64182;-82
2021/07/25 10:57:07;;;;;;;7.83;5.57;;;;;;;27.26;48.66;100251.97;125362;1095;64297;-82
2021/07/25 10:59:45;;;;;;;5.73;4.80;;;;;;;27.44;49.73;100258.50;125198;1095;64372;-81
2021/07/25 11:02:24;;;;;;;7.40;5.30;;;;;;;27.64;47.87;100249.95;125106;1096;64744;-82
2021/07/25 11:04:55;;;;;;;8.97;5.00;;;;;;;27.74;48.19;100242.72;125068;1095;64747;-82
2021/07/25 11:07:25;;;;;;;8.37;5.90;;;;;;;27.90;46.97;100252.23;125200;1096;64303;-82
2021/07/25 11:10:01;;;;;;;7.93;5.80;;;;;;;27.91;46.50;100248.41;125101;1095;64320;-82
2021/07/25 11:12:50;;;;;;;6.57;5.47;;;;;;;27.77;46.94;100250.27;124613;1095;64414;-84
2021/07/25 11:16:12;;;;;;;7.03;5.33;;;;;;;27.73;47.96;100251.98;125039;1096;64432;-82
2021/07/25 11:18:30;;;;;;;6.70;5.13;;;;;;;27.75;48.05;100241.59;124836;1096;64176;-79
2021/07/25 11:21:00;;;;;;;7.77;4.73;;;;;;;27.76;48.96;100240.50;124773;1096;64491;-79
2021/07/25 11:23:33;;;;;;;7.53;5.03;;;;;;;27.71;47.24;100246.02;124892;1096;64342;-80
2021/07/25 11:26:34;;;;;;;7.13;5.08;;;;;;;27.66;48.63;100250.45;125088;1096;64633;-83
2021/07/25 11:29:04;;;;;;;5.93;4.70;;;;;;;27.59;47.90;100244.60;125066;1096;64204;-82
2021/07/25 11:31:34;;;;;;;5.63;4.17;;;;;;;27.52;47.60;100238.75;125146;1095;64362;-81
2021/07/25 11:34:04;;;;;;;7.67;5.37;;;;;;;27.46;46.98;100253.56;125259;1096;64201;-83
2021/07/25 11:36:33;;;;;;;6.17;4.70;;;;;;;27.28;47.73;100254.41;124963;1095;64211;-80
2021/07/25 11:39:03;;;;;;;6.47;4.60;;;;;;;27.21;48.85;100252.84;125029;1095;64473;-83
2021/07/25 11:41:39;;;;;;;6.30;4.90;;;;;;;27.17;49.43;100251.81;125276;1096;64409;-81
2021/07/25 11:44:11;;;;;;;7.17;5.70;;;;;;;27.15;48.24;100251.30;125197;1095;65416;-81
2021/07/25 11:46:39;;;;;;;6.03;4.07;;;;;;;27.05;49.17;100246.02;124977;1095;64276;-83
2021/07/25 11:49:12;;;;;;;5.80;4.50;;;;;;;27.03;48.78;100248.22;125021;1096;64281;-81
2021/07/25 11:51:47;;;;;;;5.90;4.55;;;;;;;27.06;48.41;100253.09;125359;1096;64204;-81
2021/07/25 11:54:22;;;;;;;5.03;3.73;;;;;;;27.07;48.11;100251.17;124985;1096;64291;-82
2021/07/25 11:56:57;;;;;;;6.73;4.60;;;;;;;27.14;47.81;100257.86;126094;1095;64283;-82
2021/07/25 11:59:26;;;;;;;7.20;4.73;;;;;;;27.16;46.89;100252.94;125515;1096;64322;-80
2021/07/25 12:01:56;;;;;;;6.20;4.20;;;;;;;27.19;47.74;100252.33;125360;1096;64292;-81
2021/07/25 12:04:42;;;;;;;8.15;4.55;;;;;;;27.28;47.09;100259.85;125220;1096;64283;-83
2021/07/25 12:07:20;;;;;;;8.60;4.93;;;;;;;27.39;47.04;100255.84;125030;1096;64173;-82
2021/07/25 12:09:53;;;;;;;4.50;3.13;;;;;;;27.49;47.22;100252.15;125155;1096;64354;-82
2021/07/25 12:12:26;;;;;;;8.53;5.07;;;;;;;27.57;47.76;100252.27;125202;1094;64294;-81
2021/07/25 12:14:57;;;;;;;6.40;4.93;;;;;;;27.72;47.76;100264.01;125243;1096;64394;-82
2021/07/25 12:17:49;;;;;;;5.90;5.05;;;;;;;27.88;47.47;100262.63;125062;1096;64323;-82
2021/07/25 12:20:36;;;;;;;7.03;4.70;;;;;;;28.17;47.54;100261.54;125120;1094;64761;-79
2021/07/25 12:23:06;;;;;;;7.87;4.80;;;;;;;28.57;46.91;100257.17;125184;1096;64284;-80
2021/07/25 12:25:34;;;;;;;6.70;4.10;;;;;;;29.00;45.89;100253.20;125156;1096;64284;-82
2021/07/25 12:28:02;;;;;;;5.73;4.07;;;;;;;29.60;43.87;100254.75;125064;1095;64623;-81
2021/07/25 12:30:49;;;;;;;6.15;4.30;;;;;;;29.90;43.64;100246.88;125098;1096;64232;-81
2021/07/25 12:33:23;;;;;;;5.60;4.60;;;;;;;30.16;42.14;100250.52;125347;1095;64294;-81
2021/07/25 12:35:50;;;;;;;4.50;3.90;;;;;;;30.44;41.21;100242.88;126851;1096;62791;-81
2021/07/25 12:38:20;;;;;;;5.33;3.93;;;;;;;31.14;40.56;100240.17;126046;1096;64297;-82
2021/07/25 12:40:52;;;;;;;5.03;4.30;;;;;;;31.70;39.14;100235.52;125211;1095;64291;-81
2021/07/25 12:43:25;;;;;;;6.83;4.27;;;;;;;32.34;38.03;100222.00;125102;1096;64279;-81
2021/07/25 12:45:53;;;;;;;6.00;3.57;;;;;;;32.96;36.90;100225.89;125126;1096;64297;-81
2021/07/25 12:48:20;;;;;;;5.33;3.90;;;;;;;33.43;35.23;100220.09;125043;1095;64380;-81
2021/07/25 12:50:50;;;;;;;5.27;3.47;;;;;;;33.92;34.55;100220.19;124969;1095;64204;-83
2021/07/25 12:53:19;;;;;;;5.30;4.40;;;;;;;34.36;33.70;100223.13;125067;1096;64198;-82
2021/07/25 12:55:48;;;;;;;4.17;3.53;;;;;;;34.80;32.38;100226.02;125096;1096;64202;-82
2021/07/25 12:58:17;;;;;;;5.03;4.23;;;;;;;35.17;32.13;100225.06;125087;1096;64436;-81
2021/07/25 13:06:13;;;;;;;4.00;2.67;;;;;;;38.08;26.13;100218.16;125038;1095;64300;-83
2021/07/25 13:08:41;;;;;;;3.00;2.70;;;;;;;38.92;25.60;100211.33;124932;1095;64205;-81